sensor_id;sensor_type;location;lat;lon;timestamp;P1;durP1;ratioP1;P2;durP2;ratioP2
13443;SDS011;6794;59.218;18.218;2022-07-12T00:02:19;2.40;;;2.10;;
13443;SDS011;6794;59.218;18.218;2022-07-12T00:04:45;2.27;;;2.07;;
13443;SDS011;6794;59.218;18.218;2022-07-12T00:07:11;1.73;;;1.63;;
13443;SDS011;6794;59.218;18.218;2022-07-12T00:09:37;3.30;;;1.90;;
13443;SDS011;6794;59.218;18.218;2022-07-12T00:12:03;2.80;;;2.60;;
13443;SDS011;6794;59.218;18.218;2022-07-12T00:14:29;2.37;;;2.13;;
13443;SDS011;6794;59.218;18.218;2022-07-12T00:16:56;2.10;;;1.90;;
13443;SDS011;6794;59.218;18.218;2022-07-12T00:19:22;3.20;;;2.13;;
13443;SDS011;6794;59.218;18.218;2022-07-12T00:21:48;2.17;;;1.97;;
13443;SDS011;6794;59.218;18.218;2022-07-12T00:24:14;3.67;;;2.20;;
13443;SDS011;6794;59.218;18.218;2022-07-12T00:26:40;2.20;;;2.00;;
13443;SDS011;6794;59.218;18.218;2022-07-12T00:29:06;1.97;;;1.70;;
13443;SDS011;6794;59.218;18.218;2022-07-12T00:31:33;1.83;;;1.53;;
13443;SDS011;6794;59.218;18.218;2022-07-12T00:33:59;1.97;;;1.80;;
13443;SDS011;6794;59.218;18.218;2022-07-12T00:36:25;1.73;;;1.63;;
13443;SDS011;6794;59.218;18.218;2022-07-12T00:38:51;2.10;;;1.90;;
13443;SDS011;6794;59.218;18.218;2022-07-12T00:41:17;2.20;;;1.50;;
13443;SDS011;6794;59.218;18.218;2022-07-12T00:43:44;1.80;;;1.60;;
13443;SDS011;6794;59.218;18.218;2022-07-12T00:46:10;4.33;;;1.63;;
13443;SDS011;6794;59.218;18.218;2022-07-12T00:48:36;3.20;;;1.80;;
13443;SDS011;6794;59.218;18.218;2022-07-12T00:51:02;1.70;;;1.60;;
13443;SDS011;6794;59.218;18.218;2022-07-12T00:53:28;2.07;;;1.83;;
13443;SDS011;6794;59.218;18.218;2022-07-12T00:55:58;2.60;;;1.80;;
13443;SDS011;6794;59.218;18.218;2022-07-12T00:58:24;2.67;;;1.70;;
13443;SDS011;6794;59.218;18.218;2022-07-12T01:00:51;3.10;;;2.00;;
13443;SDS011;6794;59.218;18.218;2022-07-12T01:03:17;3.50;;;2.07;;
13443;SDS011;6794;59.218;18.218;2022-07-12T01:05:44;2.37;;;1.80;;
13443;SDS011;6794;59.218;18.218;2022-07-12T01:08:11;2.20;;;2.00;;
13443;SDS011;6794;59.218;18.218;2022-07-12T01:10:37;2.80;;;2.00;;
13443;SDS011;6794;59.218;18.218;2022-07-12T01:13:04;2.53;;;1.60;;
13443;SDS011;6794;59.218;18.218;2022-07-12T01:15:30;1.70;;;1.60;;
13443;SDS011;6794;59.218;18.218;2022-07-12T01:17:56;2.47;;;1.80;;
13443;SDS011;6794;59.218;18.218;2022-07-12T01:20:22;2.10;;;1.97;;
13443;SDS011;6794;59.218;18.218;2022-07-12T01:22:55;1.90;;;1.70;;
13443;SDS011;6794;59.218;18.218;2022-07-12T01:25:25;6.67;;;2.07;;
13443;SDS011;6794;59.218;18.218;2022-07-12T01:27:51;1.67;;;1.57;;
13443;SDS011;6794;59.218;18.218;2022-07-12T01:30:18;2.63;;;1.73;;
13443;SDS011;6794;59.218;18.218;2022-07-12T01:32:44;2.40;;;1.90;;
13443;SDS011;6794;59.218;18.218;2022-07-12T01:35:10;2.50;;;2.10;;
13443;SDS011;6794;59.218;18.218;2022-07-12T01:37:37;4.17;;;1.80;;
13443;SDS011;6794;59.218;18.218;2022-07-12T01:40:04;3.10;;;2.00;;
13443;SDS011;6794;59.218;18.218;2022-07-12T01:42:31;1.80;;;1.70;;
13443;SDS011;6794;59.218;18.218;2022-07-12T01:44:57;2.77;;;1.90;;
13443;SDS011;6794;59.218;18.218;2022-07-12T01:47:25;2.10;;;1.90;;
13443;SDS011;6794;59.218;18.218;2022-07-12T01:49:51;3.67;;;1.73;;
13443;SDS011;6794;59.218;18.218;2022-07-12T01:52:17;2.93;;;1.70;;
13443;SDS011;6794;59.218;18.218;2022-07-12T01:54:44;1.83;;;1.70;;
13443;SDS011;6794;59.218;18.218;2022-07-12T01:57:10;1.80;;;1.70;;
13443;SDS011;6794;59.218;18.218;2022-07-12T01:59:37;3.00;;;1.80;;
13443;SDS011;6794;59.218;18.218;2022-07-12T02:02:03;1.77;;;1.67;;
13443;SDS011;6794;59.218;18.218;2022-07-12T02:04:29;2.07;;;1.60;;
13443;SDS011;6794;59.218;18.218;2022-07-12T02:08:56;2.63;;;1.90;;
13443;SDS011;6794;59.218;18.218;2022-07-12T02:11:22;2.90;;;1.73;;
13443;SDS011;6794;59.218;18.218;2022-07-12T02:13:48;2.10;;;1.90;;
13443;SDS011;6794;59.218;18.218;2022-07-12T02:16:14;2.57;;;1.63;;
13443;SDS011;6794;59.218;18.218;2022-07-12T02:18:40;2.93;;;2.10;;
13443;SDS011;6794;59.218;18.218;2022-07-12T02:21:06;2.13;;;1.83;;
13443;SDS011;6794;59.218;18.218;2022-07-12T02:23:32;2.33;;;1.80;;
13443;SDS011;6794;59.218;18.218;2022-07-12T02:25:58;2.40;;;2.20;;
13443;SDS011;6794;59.218;18.218;2022-07-12T02:28:24;2.97;;;1.70;;
13443;SDS011;6794;59.218;18.218;2022-07-12T02:30:50;2.40;;;2.20;;
13443;SDS011;6794;59.218;18.218;2022-07-12T02:33:16;2.63;;;2.43;;
13443;SDS011;6794;59.218;18.218;2022-07-12T02:35:44;3.20;;;2.40;;
13443;SDS011;6794;59.218;18.218;2022-07-12T02:38:10;2.60;;;2.10;;
13443;SDS011;6794;59.218;18.218;2022-07-12T02:40:36;2.20;;;2.00;;
13443;SDS011;6794;59.218;18.218;2022-07-12T02:43:18;5.80;;;2.57;;
13443;SDS011;6794;59.218;18.218;2022-07-12T02:45:44;2.33;;;2.00;;
13443;SDS011;6794;59.218;18.218;2022-07-12T02:48:10;3.43;;;2.13;;
13443;SDS011;6794;59.218;18.218;2022-07-12T02:50:37;3.13;;;2.83;;
13443;SDS011;6794;59.218;18.218;2022-07-12T02:53:06;2.83;;;2.63;;
13443;SDS011;6794;59.218;18.218;2022-07-12T02:55:33;3.10;;;2.80;;
13443;SDS011;6794;59.218;18.218;2022-07-12T02:57:59;2.00;;;1.90;;
13443;SDS011;6794;59.218;18.218;2022-07-12T03:00:25;2.07;;;1.90;;
13443;SDS011;6794;59.218;18.218;2022-07-12T03:02:52;2.00;;;1.90;;
13443;SDS011;6794;59.218;18.218;2022-07-12T03:05:18;2.20;;;1.93;;
13443;SDS011;6794;59.218;18.218;2022-07-12T03:07:44;2.50;;;2.30;;
13443;SDS011;6794;59.218;18.218;2022-07-12T03:10:10;2.83;;;2.50;;
13443;SDS011;6794;59.218;18.218;2022-07-12T03:12:37;5.27;;;3.50;;
13443;SDS011;6794;59.218;18.218;2022-07-12T03:15:03;2.90;;;2.20;;
13443;SDS011;6794;59.218;18.218;2022-07-12T03:17:29;2.43;;;1.80;;
13443;SDS011;6794;59.218;18.218;2022-07-12T03:19:56;2.70;;;2.50;;
13443;SDS011;6794;59.218;18.218;2022-07-12T03:22:22;6.50;;;2.83;;
13443;SDS011;6794;59.218;18.218;2022-07-12T03:24:48;3.67;;;2.70;;
13443;SDS011;6794;59.218;18.218;2022-07-12T03:27:14;3.20;;;2.90;;
13443;SDS011;6794;59.218;18.218;2022-07-12T03:29:40;3.13;;;2.83;;
13443;SDS011;6794;59.218;18.218;2022-07-12T03:32:06;3.03;;;2.77;;
13443;SDS011;6794;59.218;18.218;2022-07-12T03:34:32;3.27;;;2.80;;
13443;SDS011;6794;59.218;18.218;2022-07-12T03:36:59;2.57;;;2.37;;
13443;SDS011;6794;59.218;18.218;2022-07-12T03:39:25;3.27;;;2.40;;
13443;SDS011;6794;59.218;18.218;2022-07-12T03:41:51;2.50;;;2.30;;
13443;SDS011;6794;59.218;18.218;2022-07-12T03:44:17;2.30;;;2.10;;
13443;SDS011;6794;59.218;18.218;2022-07-12T03:46:43;2.80;;;2.27;;
13443;SDS011;6794;59.218;18.218;2022-07-12T03:49:09;2.50;;;2.30;;
13443;SDS011;6794;59.218;18.218;2022-07-12T03:51:35;2.37;;;2.17;;
13443;SDS011;6794;59.218;18.218;2022-07-12T03:54:01;2.17;;;2.07;;
13443;SDS011;6794;59.218;18.218;2022-07-12T03:56:30;2.30;;;2.10;;
13443;SDS011;6794;59.218;18.218;2022-07-12T03:59:14;3.17;;;1.97;;
13443;SDS011;6794;59.218;18.218;2022-07-12T04:01:40;2.20;;;2.00;;
13443;SDS011;6794;59.218;18.218;2022-07-12T04:04:08;3.60;;;2.10;;
13443;SDS011;6794;59.218;18.218;2022-07-12T04:06:34;2.03;;;1.77;;
13443;SDS011;6794;59.218;18.218;2022-07-12T04:09:00;2.13;;;1.93;;
13443;SDS011;6794;59.218;18.218;2022-07-12T04:11:26;2.00;;;1.90;;
13443;SDS011;6794;59.218;18.218;2022-07-12T04:13:52;1.73;;;1.63;;
13443;SDS011;6794;59.218;18.218;2022-07-12T04:16:18;2.37;;;1.70;;
13443;SDS011;6794;59.218;18.218;2022-07-12T04:18:44;1.93;;;1.27;;
13443;SDS011;6794;59.218;18.218;2022-07-12T04:21:10;2.20;;;1.60;;
13443;SDS011;6794;59.218;18.218;2022-07-12T04:23:37;2.13;;;1.40;;
13443;SDS011;6794;59.218;18.218;2022-07-12T04:26:03;2.40;;;1.10;;
13443;SDS011;6794;59.218;18.218;2022-07-12T04:28:29;1.13;;;1.13;;
13443;SDS011;6794;59.218;18.218;2022-07-12T04:30:55;1.60;;;1.20;;
13443;SDS011;6794;59.218;18.218;2022-07-12T04:33:22;1.10;;;1.00;;
13443;SDS011;6794;59.218;18.218;2022-07-12T04:35:48;1.03;;;0.93;;
13443;SDS011;6794;59.218;18.218;2022-07-12T04:38:14;1.27;;;1.00;;
13443;SDS011;6794;59.218;18.218;2022-07-12T04:40:40;1.43;;;0.97;;
13443;SDS011;6794;59.218;18.218;2022-07-12T04:43:06;1.00;;;1.00;;
13443;SDS011;6794;59.218;18.218;2022-07-12T04:45:32;1.10;;;1.10;;
13443;SDS011;6794;59.218;18.218;2022-07-12T04:47:58;1.23;;;1.13;;
13443;SDS011;6794;59.218;18.218;2022-07-12T04:50:24;1.33;;;1.20;;
13443;SDS011;6794;59.218;18.218;2022-07-12T04:52:50;2.50;;;1.80;;
13443;SDS011;6794;59.218;18.218;2022-07-12T04:55:16;1.67;;;1.10;;
13443;SDS011;6794;59.218;18.218;2022-07-12T04:57:42;3.27;;;1.00;;
13443;SDS011;6794;59.218;18.218;2022-07-12T05:00:08;0.80;;;0.80;;
13443;SDS011;6794;59.218;18.218;2022-07-12T05:02:35;2.10;;;1.00;;
13443;SDS011;6794;59.218;18.218;2022-07-12T05:05:02;0.83;;;0.83;;
13443;SDS011;6794;59.218;18.218;2022-07-12T05:07:28;1.17;;;0.90;;
13443;SDS011;6794;59.218;18.218;2022-07-12T05:09:54;1.63;;;0.80;;
13443;SDS011;6794;59.218;18.218;2022-07-12T05:12:20;1.00;;;0.90;;
13443;SDS011;6794;59.218;18.218;2022-07-12T05:14:46;0.90;;;0.90;;
13443;SDS011;6794;59.218;18.218;2022-07-12T05:17:12;1.60;;;0.73;;
13443;SDS011;6794;59.218;18.218;2022-07-12T05:19:38;0.80;;;0.80;;
13443;SDS011;6794;59.218;18.218;2022-07-12T05:22:04;1.07;;;0.83;;
13443;SDS011;6794;59.218;18.218;2022-07-12T05:24:30;1.57;;;0.80;;
13443;SDS011;6794;59.218;18.218;2022-07-12T05:26:56;3.10;;;1.10;;
13443;SDS011;6794;59.218;18.218;2022-07-12T05:29:22;1.17;;;0.93;;
13443;SDS011;6794;59.218;18.218;2022-07-12T05:31:49;0.97;;;0.90;;
13443;SDS011;6794;59.218;18.218;2022-07-12T05:34:15;0.90;;;0.90;;
13443;SDS011;6794;59.218;18.218;2022-07-12T05:36:41;2.37;;;1.00;;
13443;SDS011;6794;59.218;18.218;2022-07-12T05:39:07;2.53;;;1.10;;
13443;SDS011;6794;59.218;18.218;2022-07-12T05:41:33;1.23;;;0.97;;
13443;SDS011;6794;59.218;18.218;2022-07-12T05:43:59;1.57;;;0.90;;
13443;SDS011;6794;59.218;18.218;2022-07-12T05:46:25;3.30;;;1.23;;
13443;SDS011;6794;59.218;18.218;2022-07-12T05:48:52;1.30;;;1.20;;
13443;SDS011;6794;59.218;18.218;2022-07-12T05:51:18;2.23;;;1.10;;
13443;SDS011;6794;59.218;18.218;2022-07-12T05:54:03;3.33;;;1.00;;
13443;SDS011;6794;59.218;18.218;2022-07-12T05:56:29;1.30;;;1.10;;
13443;SDS011;6794;59.218;18.218;2022-07-12T05:58:55;3.07;;;1.20;;
13443;SDS011;6794;59.218;18.218;2022-07-12T06:01:21;1.10;;;1.00;;
13443;SDS011;6794;59.218;18.218;2022-07-12T06:03:47;0.87;;;0.80;;
13443;SDS011;6794;59.218;18.218;2022-07-12T06:06:13;0.90;;;0.90;;
13443;SDS011;6794;59.218;18.218;2022-07-12T06:08:39;1.77;;;1.10;;
13443;SDS011;6794;59.218;18.218;2022-07-12T06:11:06;2.60;;;1.10;;
13443;SDS011;6794;59.218;18.218;2022-07-12T06:13:32;1.00;;;1.00;;
13443;SDS011;6794;59.218;18.218;2022-07-12T06:15:58;1.60;;;0.90;;
13443;SDS011;6794;59.218;18.218;2022-07-12T06:18:24;2.80;;;1.10;;
13443;SDS011;6794;59.218;18.218;2022-07-12T06:20:51;2.43;;;1.10;;
13443;SDS011;6794;59.218;18.218;2022-07-12T06:23:17;1.00;;;0.90;;
13443;SDS011;6794;59.218;18.218;2022-07-12T06:25:43;1.77;;;1.40;;
13443;SDS011;6794;59.218;18.218;2022-07-12T06:28:10;1.40;;;1.20;;
13443;SDS011;6794;59.218;18.218;2022-07-12T06:30:37;2.30;;;1.23;;
13443;SDS011;6794;59.218;18.218;2022-07-12T06:33:03;2.30;;;1.30;;
13443;SDS011;6794;59.218;18.218;2022-07-12T06:35:29;0.93;;;0.90;;
13443;SDS011;6794;59.218;18.218;2022-07-12T06:37:55;1.70;;;1.20;;
13443;SDS011;6794;59.218;18.218;2022-07-12T06:40:21;1.73;;;1.33;;
13443;SDS011;6794;59.218;18.218;2022-07-12T06:42:48;2.10;;;1.30;;
13443;SDS011;6794;59.218;18.218;2022-07-12T06:45:15;1.50;;;1.10;;
13443;SDS011;6794;59.218;18.218;2022-07-12T06:47:41;1.30;;;1.20;;
13443;SDS011;6794;59.218;18.218;2022-07-12T06:50:07;1.30;;;1.20;;
13443;SDS011;6794;59.218;18.218;2022-07-12T06:52:33;1.90;;;1.23;;
13443;SDS011;6794;59.218;18.218;2022-07-12T06:54:59;1.47;;;1.33;;
13443;SDS011;6794;59.218;18.218;2022-07-12T06:57:25;5.77;;;1.67;;
13443;SDS011;6794;59.218;18.218;2022-07-12T06:59:52;1.40;;;1.30;;
13443;SDS011;6794;59.218;18.218;2022-07-12T07:02:18;1.40;;;1.30;;
13443;SDS011;6794;59.218;18.218;2022-07-12T07:04:44;1.57;;;1.47;;
13443;SDS011;6794;59.218;18.218;2022-07-12T07:07:10;2.67;;;1.30;;
13443;SDS011;6794;59.218;18.218;2022-07-12T07:09:37;1.47;;;1.10;;
13443;SDS011;6794;59.218;18.218;2022-07-12T07:12:03;1.30;;;1.20;;
13443;SDS011;6794;59.218;18.218;2022-07-12T07:14:30;1.30;;;1.10;;
13443;SDS011;6794;59.218;18.218;2022-07-12T07:16:56;1.50;;;1.10;;
13443;SDS011;6794;59.218;18.218;2022-07-12T07:19:22;1.47;;;1.10;;
13443;SDS011;6794;59.218;18.218;2022-07-12T07:21:51;1.23;;;1.13;;
13443;SDS011;6794;59.218;18.218;2022-07-12T07:24:17;1.13;;;1.03;;
13443;SDS011;6794;59.218;18.218;2022-07-12T07:26:43;1.10;;;1.00;;
13443;SDS011;6794;59.218;18.218;2022-07-12T07:29:09;1.77;;;1.10;;
13443;SDS011;6794;59.218;18.218;2022-07-12T07:31:53;2.70;;;1.10;;
13443;SDS011;6794;59.218;18.218;2022-07-12T07:34:19;1.80;;;1.40;;
13443;SDS011;6794;59.218;18.218;2022-07-12T07:36:47;1.83;;;1.30;;
13443;SDS011;6794;59.218;18.218;2022-07-12T07:39:13;1.33;;;1.13;;
13443;SDS011;6794;59.218;18.218;2022-07-12T07:41:39;1.17;;;1.00;;
13443;SDS011;6794;59.218;18.218;2022-07-12T07:44:05;1.93;;;1.07;;
13443;SDS011;6794;59.218;18.218;2022-07-12T07:46:31;1.33;;;1.10;;
13443;SDS011;6794;59.218;18.218;2022-07-12T07:48:57;1.20;;;1.10;;
13443;SDS011;6794;59.218;18.218;2022-07-12T07:51:23;1.50;;;1.10;;
13443;SDS011;6794;59.218;18.218;2022-07-12T07:53:49;2.30;;;1.00;;
13443;SDS011;6794;59.218;18.218;2022-07-12T07:56:15;1.83;;;1.30;;
13443;SDS011;6794;59.218;18.218;2022-07-12T07:58:41;1.20;;;1.10;;
13443;SDS011;6794;59.218;18.218;2022-07-12T08:01:07;1.10;;;1.00;;
13443;SDS011;6794;59.218;18.218;2022-07-12T08:03:33;1.00;;;0.90;;
13443;SDS011;6794;59.218;18.218;2022-07-12T08:05:59;1.07;;;1.00;;
13443;SDS011;6794;59.218;18.218;2022-07-12T08:08:26;1.50;;;0.97;;
13443;SDS011;6794;59.218;18.218;2022-07-12T08:10:52;1.23;;;1.00;;
13443;SDS011;6794;59.218;18.218;2022-07-12T08:13:18;1.80;;;1.03;;
13443;SDS011;6794;59.218;18.218;2022-07-12T08:15:45;1.63;;;1.20;;
13443;SDS011;6794;59.218;18.218;2022-07-12T08:18:11;1.53;;;1.10;;
13443;SDS011;6794;59.218;18.218;2022-07-12T08:20:37;1.40;;;1.10;;
13443;SDS011;6794;59.218;18.218;2022-07-12T08:23:03;1.10;;;1.00;;
13443;SDS011;6794;59.218;18.218;2022-07-12T08:25:29;1.67;;;1.17;;
13443;SDS011;6794;59.218;18.218;2022-07-12T08:27:55;1.20;;;1.10;;
13443;SDS011;6794;59.218;18.218;2022-07-12T08:30:21;1.13;;;1.00;;
13443;SDS011;6794;59.218;18.218;2022-07-12T08:32:48;1.10;;;1.00;;
13443;SDS011;6794;59.218;18.218;2022-07-12T08:35:14;1.20;;;1.10;;
13443;SDS011;6794;59.218;18.218;2022-07-12T08:37:40;1.37;;;1.27;;
13443;SDS011;6794;59.218;18.218;2022-07-12T08:40:07;1.03;;;1.03;;
13443;SDS011;6794;59.218;18.218;2022-07-12T08:42:34;1.03;;;1.00;;
13443;SDS011;6794;59.218;18.218;2022-07-12T08:45:00;1.13;;;1.07;;
13443;SDS011;6794;59.218;18.218;2022-07-12T08:47:26;1.33;;;1.07;;
13443;SDS011;6794;59.218;18.218;2022-07-12T08:52:41;1.10;;;0.90;;
13443;SDS011;6794;59.218;18.218;2022-07-12T08:55:16;2.10;;;1.00;;
13443;SDS011;6794;59.218;18.218;2022-07-12T08:57:43;1.33;;;0.90;;
13443;SDS011;6794;59.218;18.218;2022-07-12T09:00:09;1.53;;;1.10;;
13443;SDS011;6794;59.218;18.218;2022-07-12T09:02:52;0.90;;;0.90;;
13443;SDS011;6794;59.218;18.218;2022-07-12T09:05:28;1.20;;;1.03;;
13443;SDS011;6794;59.218;18.218;2022-07-12T09:08:04;1.80;;;1.20;;
13443;SDS011;6794;59.218;18.218;2022-07-12T09:10:31;1.40;;;0.97;;
13443;SDS011;6794;59.218;18.218;2022-07-12T09:12:57;2.20;;;1.00;;
13443;SDS011;6794;59.218;18.218;2022-07-12T09:15:24;1.13;;;1.03;;
13443;SDS011;6794;59.218;18.218;2022-07-12T09:17:56;0.97;;;0.90;;
13443;SDS011;6794;59.218;18.218;2022-07-12T09:20:23;0.97;;;0.90;;
13443;SDS011;6794;59.218;18.218;2022-07-12T09:22:53;0.90;;;0.90;;
13443;SDS011;6794;59.218;18.218;2022-07-12T09:25:20;0.70;;;0.70;;
13443;SDS011;6794;59.218;18.218;2022-07-12T09:27:53;0.90;;;0.90;;
13443;SDS011;6794;59.218;18.218;2022-07-12T09:30:20;1.07;;;0.90;;
13443;SDS011;6794;59.218;18.218;2022-07-12T09:35:39;1.20;;;1.10;;
13443;SDS011;6794;59.218;18.218;2022-07-12T09:38:25;0.73;;;0.73;;
13443;SDS011;6794;59.218;18.218;2022-07-12T09:40:52;0.70;;;0.70;;
13443;SDS011;6794;59.218;18.218;2022-07-12T09:43:18;0.80;;;0.80;;
13443;SDS011;6794;59.218;18.218;2022-07-12T09:45:48;1.47;;;0.80;;
13443;SDS011;6794;59.218;18.218;2022-07-12T09:48:15;0.80;;;0.80;;
13443;SDS011;6794;59.218;18.218;2022-07-12T09:50:42;1.90;;;1.10;;
13443;SDS011;6794;59.218;18.218;2022-07-12T09:53:11;0.70;;;0.70;;
13443;SDS011;6794;59.218;18.218;2022-07-12T09:55:39;0.70;;;0.70;;
13443;SDS011;6794;59.218;18.218;2022-07-12T09:58:07;0.93;;;0.90;;
13443;SDS011;6794;59.218;18.218;2022-07-12T10:00:34;0.90;;;0.90;;
13443;SDS011;6794;59.218;18.218;2022-07-12T10:03:01;0.80;;;0.80;;
13443;SDS011;6794;59.218;18.218;2022-07-12T10:05:29;1.80;;;0.60;;
13443;SDS011;6794;59.218;18.218;2022-07-12T10:07:55;1.43;;;0.70;;
13443;SDS011;6794;59.218;18.218;2022-07-12T10:10:21;0.70;;;0.70;;
13443;SDS011;6794;59.218;18.218;2022-07-12T10:12:48;0.80;;;0.80;;
13443;SDS011;6794;59.218;18.218;2022-07-12T10:15:15;1.00;;;0.90;;
13443;SDS011;6794;59.218;18.218;2022-07-12T10:17:53;1.87;;;0.90;;
13443;SDS011;6794;59.218;18.218;2022-07-12T10:20:21;0.73;;;0.70;;
13443;SDS011;6794;59.218;18.218;2022-07-12T10:22:47;1.10;;;0.70;;
13443;SDS011;6794;59.218;18.218;2022-07-12T10:27:51;2.50;;;0.80;;
13443;SDS011;6794;59.218;18.218;2022-07-12T10:30:21;1.27;;;0.70;;
13443;SDS011;6794;59.218;18.218;2022-07-12T10:32:48;0.80;;;0.80;;
13443;SDS011;6794;59.218;18.218;2022-07-12T10:35:16;1.07;;;1.00;;
13443;SDS011;6794;59.218;18.218;2022-07-12T10:38:13;0.80;;;0.80;;
13443;SDS011;6794;59.218;18.218;2022-07-12T10:40:29;1.73;;;1.00;;
13443;SDS011;6794;59.218;18.218;2022-07-12T10:45:36;0.80;;;0.80;;
13443;SDS011;6794;59.218;18.218;2022-07-12T10:48:12;1.30;;;0.80;;
13443;SDS011;6794;59.218;18.218;2022-07-12T10:58:43;2.07;;;0.80;;
13443;SDS011;6794;59.218;18.218;2022-07-12T11:01:13;1.13;;;0.83;;
13443;SDS011;6794;59.218;18.218;2022-07-12T11:03:43;0.97;;;0.80;;
13443;SDS011;6794;59.218;18.218;2022-07-12T11:06:11;0.70;;;0.70;;
13443;SDS011;6794;59.218;18.218;2022-07-12T11:08:47;0.70;;;0.70;;
13443;SDS011;6794;59.218;18.218;2022-07-12T11:11:13;1.10;;;1.00;;
13443;SDS011;6794;59.218;18.218;2022-07-12T11:13:39;0.90;;;0.90;;
13443;SDS011;6794;59.218;18.218;2022-07-12T11:16:05;2.00;;;0.70;;
13443;SDS011;6794;59.218;18.218;2022-07-12T11:18:31;0.80;;;0.80;;
13443;SDS011;6794;59.218;18.218;2022-07-12T11:20:59;0.97;;;0.80;;
13443;SDS011;6794;59.218;18.218;2022-07-12T11:23:25;0.70;;;0.70;;
13443;SDS011;6794;59.218;18.218;2022-07-12T11:25:55;1.00;;;0.77;;
13443;SDS011;6794;59.218;18.218;2022-07-12T11:28:24;1.57;;;0.83;;
13443;SDS011;6794;59.218;18.218;2022-07-12T11:30:51;0.80;;;0.80;;
13443;SDS011;6794;59.218;18.218;2022-07-12T11:33:17;0.87;;;0.80;;
13443;SDS011;6794;59.218;18.218;2022-07-12T11:35:43;0.73;;;0.73;;
13443;SDS011;6794;59.218;18.218;2022-07-12T11:38:10;0.70;;;0.70;;
13443;SDS011;6794;59.218;18.218;2022-07-12T11:40:36;1.23;;;0.80;;
13443;SDS011;6794;59.218;18.218;2022-07-12T11:43:03;1.03;;;0.80;;
13443;SDS011;6794;59.218;18.218;2022-07-12T11:45:33;0.90;;;0.80;;
13443;SDS011;6794;59.218;18.218;2022-07-12T11:48:00;1.53;;;0.80;;
13443;SDS011;6794;59.218;18.218;2022-07-12T11:50:30;0.67;;;0.60;;
13443;SDS011;6794;59.218;18.218;2022-07-12T11:52:56;0.73;;;0.73;;
13443;SDS011;6794;59.218;18.218;2022-07-12T11:55:22;0.80;;;0.80;;
13443;SDS011;6794;59.218;18.218;2022-07-12T11:57:49;1.33;;;0.80;;
13443;SDS011;6794;59.218;18.218;2022-07-12T12:00:19;0.90;;;0.90;;
13443;SDS011;6794;59.218;18.218;2022-07-12T12:02:45;0.90;;;0.90;;
13443;SDS011;6794;59.218;18.218;2022-07-12T12:05:12;1.47;;;0.70;;
13443;SDS011;6794;59.218;18.218;2022-07-12T12:07:39;0.70;;;0.70;;
13443;SDS011;6794;59.218;18.218;2022-07-12T12:10:06;0.90;;;0.63;;
13443;SDS011;6794;59.218;18.218;2022-07-12T12:15:06;0.70;;;0.70;;
13443;SDS011;6794;59.218;18.218;2022-07-12T12:17:32;1.37;;;0.90;;
13443;SDS011;6794;59.218;18.218;2022-07-12T12:20:07;1.03;;;0.90;;
13443;SDS011;6794;59.218;18.218;2022-07-12T12:22:33;0.77;;;0.70;;
13443;SDS011;6794;59.218;18.218;2022-07-12T12:25:00;1.67;;;0.87;;
13443;SDS011;6794;59.218;18.218;2022-07-12T12:27:26;0.77;;;0.77;;
13443;SDS011;6794;59.218;18.218;2022-07-12T12:29:53;1.07;;;0.90;;
13443;SDS011;6794;59.218;18.218;2022-07-12T12:32:19;1.73;;;0.90;;
13443;SDS011;6794;59.218;18.218;2022-07-12T12:37:29;1.03;;;0.70;;
13443;SDS011;6794;59.218;18.218;2022-07-12T12:39:56;0.80;;;0.80;;
13443;SDS011;6794;59.218;18.218;2022-07-12T12:42:25;0.87;;;0.80;;
13443;SDS011;6794;59.218;18.218;2022-07-12T12:44:51;1.17;;;0.90;;
13443;SDS011;6794;59.218;18.218;2022-07-12T12:47:17;0.70;;;0.70;;
13443;SDS011;6794;59.218;18.218;2022-07-12T12:49:55;0.73;;;0.73;;
13443;SDS011;6794;59.218;18.218;2022-07-12T12:52:25;0.90;;;0.70;;
13443;SDS011;6794;59.218;18.218;2022-07-12T12:54:51;0.70;;;0.70;;
13443;SDS011;6794;59.218;18.218;2022-07-12T12:57:18;0.70;;;0.70;;
13443;SDS011;6794;59.218;18.218;2022-07-12T12:59:44;0.67;;;0.67;;
13443;SDS011;6794;59.218;18.218;2022-07-12T13:02:10;0.80;;;0.80;;
13443;SDS011;6794;59.218;18.218;2022-07-12T13:04:37;1.00;;;0.90;;
13443;SDS011;6794;59.218;18.218;2022-07-12T13:07:04;0.77;;;0.77;;
13443;SDS011;6794;59.218;18.218;2022-07-12T13:09:31;0.83;;;0.80;;
13443;SDS011;6794;59.218;18.218;2022-07-12T13:11:57;0.70;;;0.70;;
13443;SDS011;6794;59.218;18.218;2022-07-12T13:14:24;1.00;;;1.00;;
13443;SDS011;6794;59.218;18.218;2022-07-12T13:16:50;1.47;;;0.77;;
13443;SDS011;6794;59.218;18.218;2022-07-12T13:19:16;0.70;;;0.70;;
13443;SDS011;6794;59.218;18.218;2022-07-12T13:21:42;1.07;;;0.90;;
13443;SDS011;6794;59.218;18.218;2022-07-12T13:24:08;0.80;;;0.80;;
13443;SDS011;6794;59.218;18.218;2022-07-12T13:26:35;0.93;;;0.70;;
13443;SDS011;6794;59.218;18.218;2022-07-12T13:29:02;0.80;;;0.77;;
13443;SDS011;6794;59.218;18.218;2022-07-12T13:31:28;1.43;;;1.07;;
13443;SDS011;6794;59.218;18.218;2022-07-12T13:33:54;0.70;;;0.70;;
13443;SDS011;6794;59.218;18.218;2022-07-12T13:36:21;0.67;;;0.67;;
13443;SDS011;6794;59.218;18.218;2022-07-12T13:38:47;1.73;;;0.90;;
13443;SDS011;6794;59.218;18.218;2022-07-12T13:41:13;0.70;;;0.70;;
13443;SDS011;6794;59.218;18.218;2022-07-12T13:43:39;1.67;;;0.80;;
13443;SDS011;6794;59.218;18.218;2022-07-12T13:46:05;0.77;;;0.70;;
13443;SDS011;6794;59.218;18.218;2022-07-12T13:48:31;0.70;;;0.70;;
13443;SDS011;6794;59.218;18.218;2022-07-12T13:50:58;0.77;;;0.77;;
13443;SDS011;6794;59.218;18.218;2022-07-12T13:53:24;1.00;;;0.90;;
13443;SDS011;6794;59.218;18.218;2022-07-12T13:55:50;0.70;;;0.70;;
13443;SDS011;6794;59.218;18.218;2022-07-12T13:58:16;0.70;;;0.70;;
13443;SDS011;6794;59.218;18.218;2022-07-12T14:00:42;0.80;;;0.77;;
13443;SDS011;6794;59.218;18.218;2022-07-12T14:03:09;1.30;;;0.90;;
13443;SDS011;6794;59.218;18.218;2022-07-12T14:05:35;1.67;;;0.70;;
13443;SDS011;6794;59.218;18.218;2022-07-12T14:08:02;0.87;;;0.80;;
13443;SDS011;6794;59.218;18.218;2022-07-12T14:10:28;0.73;;;0.73;;
13443;SDS011;6794;59.218;18.218;2022-07-12T14:12:54;0.87;;;0.87;;
13443;SDS011;6794;59.218;18.218;2022-07-12T14:15:20;1.00;;;0.90;;
13443;SDS011;6794;59.218;18.218;2022-07-12T14:18:03;0.80;;;0.80;;
13443;SDS011;6794;59.218;18.218;2022-07-12T14:20:30;1.33;;;0.87;;
13443;SDS011;6794;59.218;18.218;2022-07-12T14:22:56;0.60;;;0.60;;
13443;SDS011;6794;59.218;18.218;2022-07-12T14:25:22;1.37;;;0.73;;
13443;SDS011;6794;59.218;18.218;2022-07-12T14:27:48;0.70;;;0.70;;
13443;SDS011;6794;59.218;18.218;2022-07-12T14:30:14;0.70;;;0.70;;
13443;SDS011;6794;59.218;18.218;2022-07-12T14:32:41;0.80;;;0.80;;
13443;SDS011;6794;59.218;18.218;2022-07-12T14:35:07;0.93;;;0.93;;
13443;SDS011;6794;59.218;18.218;2022-07-12T14:37:34;0.70;;;0.70;;
13443;SDS011;6794;59.218;18.218;2022-07-12T14:40:01;1.50;;;0.90;;
13443;SDS011;6794;59.218;18.218;2022-07-12T14:42:29;0.90;;;0.90;;
13443;SDS011;6794;59.218;18.218;2022-07-12T14:45:00;1.00;;;0.90;;
13443;SDS011;6794;59.218;18.218;2022-07-12T14:47:26;1.00;;;1.00;;
13443;SDS011;6794;59.218;18.218;2022-07-12T14:49:52;1.17;;;0.90;;
13443;SDS011;6794;59.218;18.218;2022-07-12T14:52:21;1.60;;;0.80;;
13443;SDS011;6794;59.218;18.218;2022-07-12T14:54:47;1.40;;;1.30;;
13443;SDS011;6794;59.218;18.218;2022-07-12T14:57:15;0.80;;;0.80;;
13443;SDS011;6794;59.218;18.218;2022-07-12T14:59:42;1.23;;;0.90;;
13443;SDS011;6794;59.218;18.218;2022-07-12T15:02:08;0.80;;;0.80;;
13443;SDS011;6794;59.218;18.218;2022-07-12T15:04:34;1.90;;;1.00;;
13443;SDS011;6794;59.218;18.218;2022-07-12T15:07:00;0.97;;;0.90;;
13443;SDS011;6794;59.218;18.218;2022-07-12T15:09:27;0.97;;;0.90;;
13443;SDS011;6794;59.218;18.218;2022-07-12T15:11:53;1.50;;;0.80;;
13443;SDS011;6794;59.218;18.218;2022-07-12T15:14:19;1.47;;;0.83;;